BAW760 EGLL-ENGM
Flight info
| Callsign | BAW760 |
|---|---|
| Flight time | 1h 37m |
| Altitude | 35000 |
| Route | BPK Q295 MATCH P144 SAMHO DCT LARGA DCT INBOB M604 DANKO DCT PIPEX DCT ULMUG DCT RIPAM |
| Aircraft | A21N/M-SDE2E3FGHIRWXY/LB1 |
Departure
| Time | 2026-05-07 07:40 |
|---|---|
| Airport | London Heathrow Airport (EGLL) |
Arrival
| Time | 2026-05-07 09:17 |
|---|---|
| Airport | Oslo-Gardermoen International Airport (ENGM) |
| Time | Latitude | Longitude | Altitude | Speed | Heading |
|---|---|---|---|---|---|
| 2026-05-07 07:24 | 51.46926 | -0.48573 | 92 ft | 0 kts | 360° |
| 2026-05-07 07:33 | 51.46907 | -0.48575 | 91 ft | 4 kts | 15° |
| 2026-05-07 07:34 | 51.46885 | -0.48594 | 93 ft | 4 kts | 54° |
| 2026-05-07 07:34 | 51.46877 | -0.48628 | 91 ft | 2 kts | 89° |
| 2026-05-07 07:34 | 51.46877 | -0.48637 | 91 ft | 0 kts | 89° |
| 2026-05-07 07:36 | 51.46877 | -0.48636 | 91 ft | 1 kts | 89° |
| 2026-05-07 07:37 | 51.46877 | -0.48606 | 91 ft | 5 kts | 89° |
| 2026-05-07 07:37 | 51.46878 | -0.48540 | 92 ft | 7 kts | 92° |
| 2026-05-07 07:37 | 51.46865 | -0.48490 | 92 ft | 8 kts | 133° |
| 2026-05-07 07:37 | 51.46808 | -0.48465 | 93 ft | 10 kts | 175° |
| 2026-05-07 07:38 | 51.46734 | -0.48465 | 92 ft | 11 kts | 180° |
| 2026-05-07 07:38 | 51.46648 | -0.48465 | 92 ft | 13 kts | 180° |
| 2026-05-07 07:38 | 51.46552 | -0.48467 | 92 ft | 15 kts | 180° |
| 2026-05-07 07:38 | 51.46478 | -0.48389 | 92 ft | 16 kts | 91° |
| 2026-05-07 07:39 | 51.46482 | -0.48161 | 93 ft | 39 kts | 90° |
| 2026-05-07 07:39 | 51.46481 | -0.47344 | 92 ft | 104 kts | 89° |
| 2026-05-07 07:39 | 51.46486 | -0.45884 | 95 ft | 156 kts | 90° |
| 2026-05-07 07:39 | 51.46495 | -0.44040 | 434 ft | 167 kts | 91° |
| 2026-05-07 07:40 | 51.46519 | -0.42164 | 964 ft | 170 kts | 87° |
| 2026-05-07 07:40 | 51.46821 | -0.40305 | 1410 ft | 182 kts | 62° |
| 2026-05-07 07:40 | 51.47644 | -0.38640 | 1801 ft | 202 kts | 49° |
| 2026-05-07 07:40 | 51.48639 | -0.36849 | 2131 ft | 226 kts | 50° |
| 2026-05-07 07:41 | 51.49711 | -0.34863 | 2604 ft | 245 kts | 50° |
| 2026-05-07 07:41 | 51.50855 | -0.32720 | 3276 ft | 259 kts | 50° |
| 2026-05-07 07:41 | 51.51997 | -0.30451 | 4143 ft | 264 kts | 57° |
| 2026-05-07 07:41 | 51.52779 | -0.27778 | 5040 ft | 267 kts | 70° |
| 2026-05-07 07:42 | 51.53396 | -0.24938 | 5904 ft | 271 kts | 71° |
| 2026-05-07 07:42 | 51.54014 | -0.22055 | 6752 ft | 275 kts | 71° |
| 2026-05-07 07:42 | 51.54750 | -0.19206 | 7566 ft | 278 kts | 55° |
| 2026-05-07 07:42 | 51.56179 | -0.17152 | 8366 ft | 279 kts | 24° |
| 2026-05-07 07:43 | 51.58064 | -0.16548 | 9188 ft | 280 kts | 354° |
| 2026-05-07 07:43 | 51.59995 | -0.17077 | 10028 ft | 284 kts | 353° |
| 2026-05-07 07:43 | 51.61990 | -0.16793 | 10527 ft | 301 kts | 13° |
| 2026-05-07 07:43 | 51.64072 | -0.15854 | 10862 ft | 322 kts | 16° |
| 2026-05-07 07:44 | 51.66280 | -0.14783 | 11167 ft | 342 kts | 16° |
| 2026-05-07 07:44 | 51.68627 | -0.13661 | 11485 ft | 360 kts | 15° |
| 2026-05-07 07:44 | 51.71029 | -0.12354 | 12069 ft | 368 kts | 24° |
| 2026-05-07 07:44 | 51.73187 | -0.10103 | 12770 ft | 373 kts | 41° |
| 2026-05-07 07:45 | 51.74816 | -0.06833 | 13472 ft | 378 kts | 60° |
| 2026-05-07 07:45 | 51.75727 | -0.02845 | 14138 ft | 381 kts | 78° |
| 2026-05-07 07:45 | 51.76099 | 0.01409 | 14737 ft | 385 kts | 83° |
| 2026-05-07 07:45 | 51.76400 | 0.05725 | 15348 ft | 388 kts | 83° |
| 2026-05-07 07:46 | 51.76725 | 0.10077 | 15919 ft | 392 kts | 83° |
| 2026-05-07 07:46 | 51.77070 | 0.14455 | 16495 ft | 396 kts | 83° |
| 2026-05-07 07:46 | 51.77423 | 0.18886 | 17067 ft | 399 kts | 83° |
| 2026-05-07 07:46 | 51.77899 | 0.23315 | 17599 ft | 403 kts | 73° |
| 2026-05-07 07:47 | 51.79102 | 0.27400 | 18122 ft | 406 kts | 55° |
| 2026-05-07 07:47 | 51.81015 | 0.30773 | 18603 ft | 409 kts | 41° |
| 2026-05-07 07:47 | 51.83184 | 0.33766 | 19074 ft | 411 kts | 40° |
| 2026-05-07 07:47 | 51.85341 | 0.36823 | 19558 ft | 413 kts | 41° |
| 2026-05-07 07:48 | 51.87459 | 0.39990 | 20044 ft | 416 kts | 43° |
| 2026-05-07 07:48 | 51.89558 | 0.43228 | 20493 ft | 418 kts | 43° |
| 2026-05-07 07:48 | 51.91659 | 0.46517 | 20961 ft | 421 kts | 44° |
| 2026-05-07 07:48 | 51.93766 | 0.49833 | 21419 ft | 424 kts | 44° |
| 2026-05-07 07:49 | 51.95884 | 0.53176 | 21894 ft | 426 kts | 44° |
| 2026-05-07 07:49 | 51.98014 | 0.56542 | 22351 ft | 429 kts | 44° |
| 2026-05-07 07:49 | 52.00125 | 0.59883 | 22817 ft | 431 kts | 44° |
| 2026-05-07 07:49 | 52.02340 | 0.63270 | 23298 ft | 433 kts | 39° |
| 2026-05-07 07:50 | 52.04728 | 0.66169 | 23757 ft | 436 kts | 35° |
| 2026-05-07 07:50 | 52.07211 | 0.69000 | 24195 ft | 436 kts | 35° |
| 2026-05-07 07:50 | 52.09700 | 0.71827 | 24641 ft | 437 kts | 35° |
| 2026-05-07 07:50 | 52.12198 | 0.74673 | 25079 ft | 439 kts | 35° |
| 2026-05-07 07:51 | 52.14698 | 0.77539 | 25483 ft | 441 kts | 35° |
| 2026-05-07 07:51 | 52.17210 | 0.80422 | 25912 ft | 442 kts | 35° |
| 2026-05-07 07:51 | 52.19729 | 0.83316 | 26287 ft | 445 kts | 35° |
| 2026-05-07 07:51 | 52.22263 | 0.86231 | 26681 ft | 447 kts | 36° |
| 2026-05-07 07:52 | 52.24809 | 0.89165 | 27048 ft | 449 kts | 36° |
| 2026-05-07 07:52 | 52.27361 | 0.92112 | 27420 ft | 450 kts | 36° |
| 2026-05-07 07:52 | 52.29923 | 0.95071 | 27808 ft | 451 kts | 36° |
| 2026-05-07 07:52 | 52.32475 | 0.98024 | 28289 ft | 449 kts | 36° |
| 2026-05-07 07:53 | 52.35020 | 1.00973 | 28771 ft | 447 kts | 36° |
| 2026-05-07 07:53 | 52.37552 | 1.03915 | 29247 ft | 445 kts | 36° |
| 2026-05-07 07:53 | 52.40073 | 1.06844 | 29724 ft | 444 kts | 36° |
| 2026-05-07 07:53 | 52.42583 | 1.09765 | 30203 ft | 442 kts | 36° |
| 2026-05-07 07:54 | 52.45083 | 1.12680 | 30591 ft | 441 kts | 36° |
| 2026-05-07 07:54 | 52.47576 | 1.15590 | 30962 ft | 440 kts | 36° |
| 2026-05-07 07:54 | 52.50067 | 1.18501 | 31330 ft | 439 kts | 36° |
| 2026-05-07 07:54 | 52.52550 | 1.21408 | 31704 ft | 437 kts | 36° |
| 2026-05-07 07:55 | 52.55016 | 1.24299 | 32117 ft | 435 kts | 36° |
| 2026-05-07 07:55 | 52.57478 | 1.27188 | 32492 ft | 434 kts | 36° |
| 2026-05-07 07:55 | 52.59929 | 1.30070 | 32832 ft | 433 kts | 36° |
| 2026-05-07 07:55 | 52.62379 | 1.32956 | 33170 ft | 432 kts | 36° |
| 2026-05-07 07:56 | 52.64817 | 1.35831 | 33488 ft | 431 kts | 36° |
| 2026-05-07 07:56 | 52.67254 | 1.38711 | 33802 ft | 430 kts | 36° |
| 2026-05-07 07:56 | 52.69684 | 1.41587 | 34094 ft | 430 kts | 36° |
| 2026-05-07 07:56 | 52.72109 | 1.44460 | 34314 ft | 430 kts | 36° |
| 2026-05-07 07:57 | 52.74539 | 1.47341 | 34478 ft | 430 kts | 36° |
| 2026-05-07 07:57 | 52.76973 | 1.50231 | 34647 ft | 431 kts | 36° |
| 2026-05-07 07:57 | 52.79407 | 1.53123 | 34838 ft | 432 kts | 36° |
| 2026-05-07 07:57 | 52.81845 | 1.56025 | 34998 ft | 432 kts | 36° |
| 2026-05-07 07:58 | 52.84288 | 1.58939 | 35121 ft | 434 kts | 36° |
| 2026-05-07 07:58 | 52.89187 | 1.64797 | 35113 ft | 434 kts | 36° |
| 2026-05-07 07:59 | 52.94043 | 1.70617 | 35097 ft | 434 kts | 36° |
| 2026-05-07 07:59 | 52.98929 | 1.76485 | 35102 ft | 434 kts | 36° |
| 2026-05-07 08:00 | 53.03810 | 1.82365 | 35101 ft | 434 kts | 36° |
| 2026-05-07 08:00 | 53.08693 | 1.88266 | 35097 ft | 434 kts | 36° |
| 2026-05-07 08:01 | 53.13570 | 1.94180 | 35098 ft | 434 kts | 36° |
| 2026-05-07 08:01 | 53.18446 | 2.00108 | 35094 ft | 434 kts | 36° |
| 2026-05-07 08:02 | 53.23323 | 2.06050 | 35097 ft | 434 kts | 36° |
| 2026-05-07 08:02 | 53.28259 | 2.11857 | 35103 ft | 434 kts | 34° |
| 2026-05-07 08:03 | 53.33258 | 2.17528 | 35099 ft | 434 kts | 34° |
| 2026-05-07 08:03 | 53.38251 | 2.23210 | 35101 ft | 434 kts | 34° |
| 2026-05-07 08:04 | 53.43242 | 2.28908 | 35107 ft | 434 kts | 34° |
| 2026-05-07 08:04 | 53.48223 | 2.34643 | 35105 ft | 434 kts | 36° |
| 2026-05-07 08:05 | 53.53072 | 2.40692 | 35105 ft | 434 kts | 37° |
| 2026-05-07 08:05 | 53.57902 | 2.46777 | 35102 ft | 434 kts | 37° |
| 2026-05-07 08:06 | 53.62737 | 2.52880 | 35110 ft | 434 kts | 37° |
| 2026-05-07 08:06 | 53.67565 | 2.58996 | 35111 ft | 434 kts | 37° |
| 2026-05-07 08:07 | 53.72394 | 2.65125 | 35109 ft | 434 kts | 37° |
| 2026-05-07 08:07 | 53.77218 | 2.71268 | 35100 ft | 434 kts | 37° |
| 2026-05-07 08:08 | 53.82038 | 2.77424 | 35106 ft | 434 kts | 37° |
| 2026-05-07 08:08 | 53.86861 | 2.83601 | 35114 ft | 434 kts | 37° |
| 2026-05-07 08:09 | 53.91680 | 2.89793 | 35112 ft | 435 kts | 37° |
| 2026-05-07 08:09 | 53.96494 | 2.95996 | 35100 ft | 435 kts | 37° |
| 2026-05-07 08:10 | 54.01308 | 3.02215 | 35104 ft | 435 kts | 37° |
| 2026-05-07 08:10 | 54.06117 | 3.08447 | 35102 ft | 435 kts | 37° |
| 2026-05-07 08:11 | 54.10889 | 3.14654 | 35106 ft | 434 kts | 37° |
| 2026-05-07 08:11 | 54.15690 | 3.20917 | 35109 ft | 435 kts | 37° |
| 2026-05-07 08:12 | 54.20490 | 3.27199 | 35103 ft | 435 kts | 37° |
| 2026-05-07 08:12 | 54.25288 | 3.33496 | 35110 ft | 435 kts | 37° |
| 2026-05-07 08:13 | 54.30092 | 3.39820 | 35117 ft | 435 kts | 37° |
| 2026-05-07 08:13 | 54.34891 | 3.46158 | 35108 ft | 435 kts | 37° |
| 2026-05-07 08:14 | 54.39684 | 3.52503 | 35104 ft | 435 kts | 37° |
| 2026-05-07 08:14 | 54.44477 | 3.58865 | 35106 ft | 435 kts | 37° |
| 2026-05-07 08:15 | 54.49292 | 3.65273 | 35107 ft | 438 kts | 37° |
| 2026-05-07 08:15 | 54.54114 | 3.71710 | 35112 ft | 439 kts | 37° |
| 2026-05-07 08:16 | 54.58929 | 3.78163 | 35120 ft | 438 kts | 37° |
| 2026-05-07 08:16 | 54.63722 | 3.84606 | 35111 ft | 436 kts | 37° |
| 2026-05-07 08:17 | 54.68506 | 3.91055 | 35110 ft | 436 kts | 37° |
| 2026-05-07 08:17 | 54.73274 | 3.97507 | 35106 ft | 439 kts | 37° |
| 2026-05-07 08:18 | 54.78073 | 4.04030 | 35106 ft | 439 kts | 37° |
| 2026-05-07 08:18 | 54.82876 | 4.10564 | 35106 ft | 439 kts | 37° |
| 2026-05-07 08:19 | 54.87767 | 4.16896 | 35103 ft | 438 kts | 32° |
| 2026-05-07 08:19 | 54.92892 | 4.22623 | 35106 ft | 438 kts | 32° |
| 2026-05-07 08:20 | 54.98043 | 4.28376 | 35102 ft | 441 kts | 31° |
| 2026-05-07 08:20 | 55.03210 | 4.34183 | 35103 ft | 442 kts | 31° |
| 2026-05-07 08:21 | 55.08370 | 4.39999 | 35101 ft | 440 kts | 31° |
| 2026-05-07 08:21 | 55.13500 | 4.45798 | 35100 ft | 439 kts | 32° |
| 2026-05-07 08:22 | 55.18623 | 4.51608 | 35112 ft | 439 kts | 31° |
| 2026-05-07 08:22 | 55.23774 | 4.57466 | 35105 ft | 442 kts | 31° |
| 2026-05-07 08:23 | 55.28929 | 4.63348 | 35102 ft | 442 kts | 31° |
| 2026-05-07 08:23 | 55.33214 | 4.68251 | 35104 ft | 442 kts | 31° |
| 2026-05-07 08:24 | 55.38361 | 4.74159 | 35106 ft | 442 kts | 31° |
| 2026-05-07 08:24 | 55.43512 | 4.80087 | 35116 ft | 442 kts | 31° |
| 2026-05-07 08:25 | 55.48675 | 4.86052 | 35106 ft | 444 kts | 31° |
| 2026-05-07 08:25 | 55.53847 | 4.92039 | 35111 ft | 444 kts | 31° |
| 2026-05-07 08:26 | 55.61593 | 5.01047 | 35109 ft | 444 kts | 31° |
| 2026-05-07 08:26 | 55.66755 | 5.07083 | 35108 ft | 444 kts | 31° |
| 2026-05-07 08:27 | 55.71921 | 5.13137 | 35118 ft | 446 kts | 31° |
| 2026-05-07 08:27 | 55.77100 | 5.19223 | 35104 ft | 446 kts | 31° |
| 2026-05-07 08:28 | 55.82276 | 5.25329 | 35111 ft | 446 kts | 31° |
| 2026-05-07 08:28 | 55.87447 | 5.31456 | 35109 ft | 447 kts | 31° |
| 2026-05-07 08:29 | 55.92617 | 5.37594 | 35105 ft | 447 kts | 31° |
| 2026-05-07 08:29 | 55.97748 | 5.43702 | 35105 ft | 447 kts | 31° |
| 2026-05-07 08:30 | 56.02913 | 5.49874 | 35109 ft | 447 kts | 31° |
| 2026-05-07 08:30 | 56.08076 | 5.56064 | 35112 ft | 447 kts | 31° |
| 2026-05-07 08:31 | 56.13271 | 5.62311 | 35113 ft | 447 kts | 31° |
| 2026-05-07 08:31 | 56.18426 | 5.68531 | 35124 ft | 447 kts | 31° |
| 2026-05-07 08:32 | 56.23591 | 5.74783 | 35114 ft | 447 kts | 31° |
| 2026-05-07 08:32 | 56.28712 | 5.81001 | 35110 ft | 447 kts | 31° |
| 2026-05-07 08:33 | 56.33865 | 5.87282 | 35107 ft | 447 kts | 31° |
| 2026-05-07 08:33 | 56.39013 | 5.93578 | 35103 ft | 447 kts | 31° |
| 2026-05-07 08:34 | 56.44161 | 5.99895 | 35116 ft | 448 kts | 31° |
| 2026-05-07 08:34 | 56.49320 | 6.06248 | 35110 ft | 450 kts | 31° |
| 2026-05-07 08:35 | 56.54494 | 6.12644 | 35107 ft | 450 kts | 31° |
| 2026-05-07 08:35 | 56.59657 | 6.19035 | 35106 ft | 450 kts | 31° |
| 2026-05-07 08:36 | 56.64821 | 6.25457 | 35109 ft | 450 kts | 31° |
| 2026-05-07 08:36 | 56.69981 | 6.31896 | 35113 ft | 451 kts | 31° |
| 2026-05-07 08:37 | 56.75153 | 6.38369 | 35109 ft | 451 kts | 31° |
| 2026-05-07 08:37 | 56.80329 | 6.44873 | 35110 ft | 451 kts | 31° |
| 2026-05-07 08:38 | 56.85460 | 6.51339 | 35106 ft | 451 kts | 31° |
| 2026-05-07 08:38 | 56.90617 | 6.57861 | 35106 ft | 451 kts | 31° |
| 2026-05-07 08:39 | 56.95773 | 6.64407 | 35113 ft | 452 kts | 31° |
| 2026-05-07 08:39 | 57.00960 | 6.70934 | 35109 ft | 452 kts | 29° |
| 2026-05-07 08:40 | 57.06229 | 6.77234 | 35107 ft | 452 kts | 29° |
| 2026-05-07 08:40 | 57.11495 | 6.83547 | 35106 ft | 452 kts | 29° |
| 2026-05-07 08:41 | 57.16751 | 6.89870 | 35106 ft | 452 kts | 29° |
| 2026-05-07 08:41 | 57.22020 | 6.96230 | 35118 ft | 453 kts | 29° |
| 2026-05-07 08:42 | 57.27295 | 7.02620 | 35109 ft | 454 kts | 29° |
| 2026-05-07 08:42 | 57.32578 | 7.09031 | 35107 ft | 454 kts | 29° |
| 2026-05-07 08:43 | 57.37855 | 7.15464 | 35109 ft | 454 kts | 29° |
| 2026-05-07 08:43 | 57.43126 | 7.21916 | 35109 ft | 454 kts | 29° |
| 2026-05-07 08:44 | 57.48393 | 7.28389 | 35114 ft | 455 kts | 29° |
| 2026-05-07 08:44 | 57.53673 | 7.34895 | 35108 ft | 455 kts | 29° |
| 2026-05-07 08:45 | 57.58954 | 7.41426 | 35109 ft | 455 kts | 29° |
| 2026-05-07 08:45 | 57.64228 | 7.47974 | 35113 ft | 455 kts | 29° |
| 2026-05-07 08:46 | 57.69500 | 7.54542 | 35112 ft | 455 kts | 29° |
| 2026-05-07 08:46 | 57.74777 | 7.61139 | 35122 ft | 457 kts | 29° |
| 2026-05-07 08:47 | 57.80061 | 7.67771 | 35107 ft | 457 kts | 29° |
| 2026-05-07 08:47 | 57.85347 | 7.74428 | 35113 ft | 457 kts | 29° |
| 2026-05-07 08:48 | 57.90628 | 7.81102 | 35109 ft | 457 kts | 29° |
| 2026-05-07 08:48 | 57.95903 | 7.87799 | 35136 ft | 457 kts | 29° |
| 2026-05-07 08:49 | 58.01190 | 7.94528 | 35119 ft | 459 kts | 29° |
| 2026-05-07 08:49 | 58.06480 | 8.01286 | 35113 ft | 459 kts | 29° |
| 2026-05-07 08:50 | 58.11734 | 8.08022 | 35112 ft | 459 kts | 29° |
| 2026-05-07 08:50 | 58.17018 | 8.14819 | 35114 ft | 459 kts | 29° |
| 2026-05-07 08:51 | 58.22301 | 8.21647 | 35136 ft | 460 kts | 29° |
| 2026-05-07 08:51 | 58.27593 | 8.28507 | 35117 ft | 461 kts | 29° |
| 2026-05-07 08:52 | 58.32880 | 8.35385 | 35114 ft | 461 kts | 29° |
| 2026-05-07 08:52 | 58.38169 | 8.42297 | 35111 ft | 461 kts | 29° |
| 2026-05-07 08:53 | 58.43455 | 8.49223 | 35109 ft | 461 kts | 29° |
| 2026-05-07 08:53 | 58.46080 | 8.52677 | 34982 ft | 455 kts | 29° |
| 2026-05-07 08:53 | 58.48692 | 8.56120 | 34660 ft | 457 kts | 29° |
| 2026-05-07 08:54 | 58.51314 | 8.59577 | 34398 ft | 458 kts | 29° |
| 2026-05-07 08:54 | 58.53937 | 8.63038 | 34149 ft | 457 kts | 29° |
| 2026-05-07 08:54 | 58.56555 | 8.66507 | 33893 ft | 457 kts | 29° |
| 2026-05-07 08:54 | 58.59168 | 8.69974 | 33616 ft | 457 kts | 29° |
| 2026-05-07 08:55 | 58.61785 | 8.73451 | 33331 ft | 458 kts | 29° |
| 2026-05-07 08:55 | 58.64399 | 8.76934 | 33063 ft | 458 kts | 29° |
| 2026-05-07 08:55 | 58.67013 | 8.80421 | 32793 ft | 458 kts | 29° |
| 2026-05-07 08:55 | 58.69627 | 8.83913 | 32539 ft | 458 kts | 29° |
| 2026-05-07 08:56 | 58.72244 | 8.87416 | 32280 ft | 458 kts | 29° |
| 2026-05-07 08:56 | 58.74861 | 8.90925 | 32046 ft | 459 kts | 28° |
| 2026-05-07 08:56 | 58.77482 | 8.94449 | 31790 ft | 460 kts | 28° |
| 2026-05-07 08:56 | 58.80106 | 8.97985 | 31530 ft | 460 kts | 28° |
| 2026-05-07 08:57 | 58.82728 | 9.01525 | 31215 ft | 459 kts | 28° |
| 2026-05-07 08:57 | 58.85279 | 9.05083 | 30616 ft | 459 kts | 31° |
| 2026-05-07 08:57 | 58.87791 | 9.08902 | 29849 ft | 461 kts | 32° |
| 2026-05-07 08:57 | 58.90305 | 9.12758 | 29027 ft | 461 kts | 32° |
| 2026-05-07 08:58 | 58.92813 | 9.16623 | 28323 ft | 459 kts | 33° |
| 2026-05-07 08:58 | 58.95302 | 9.20463 | 27677 ft | 457 kts | 33° |
| 2026-05-07 08:58 | 58.97778 | 9.24287 | 27028 ft | 454 kts | 33° |
| 2026-05-07 08:58 | 59.00243 | 9.28100 | 26410 ft | 452 kts | 33° |
| 2026-05-07 08:59 | 59.02699 | 9.31899 | 25768 ft | 451 kts | 33° |
| 2026-05-07 08:59 | 59.05139 | 9.35683 | 25133 ft | 449 kts | 33° |
| 2026-05-07 08:59 | 59.07575 | 9.39470 | 24497 ft | 448 kts | 33° |
| 2026-05-07 08:59 | 59.10004 | 9.43256 | 23849 ft | 447 kts | 33° |
| 2026-05-07 09:00 | 59.12428 | 9.47039 | 23129 ft | 446 kts | 34° |
| 2026-05-07 09:00 | 59.14843 | 9.50817 | 22424 ft | 445 kts | 34° |
| 2026-05-07 09:00 | 59.17249 | 9.54586 | 21733 ft | 443 kts | 34° |
| 2026-05-07 09:00 | 59.19701 | 9.58182 | 21077 ft | 438 kts | 29° |
| 2026-05-07 09:01 | 59.22226 | 9.61434 | 20437 ft | 433 kts | 29° |
| 2026-05-07 09:01 | 59.24727 | 9.64640 | 19849 ft | 427 kts | 29° |
| 2026-05-07 09:01 | 59.27191 | 9.67803 | 19281 ft | 421 kts | 29° |
| 2026-05-07 09:01 | 59.29619 | 9.70926 | 18706 ft | 415 kts | 29° |
| 2026-05-07 09:02 | 59.32014 | 9.74028 | 18113 ft | 410 kts | 30° |
| 2026-05-07 09:02 | 59.34271 | 9.77363 | 17760 ft | 400 kts | 35° |
| 2026-05-07 09:02 | 59.36421 | 9.80779 | 17492 ft | 398 kts | 35° |
| 2026-05-07 09:02 | 59.38563 | 9.84187 | 17222 ft | 396 kts | 35° |
| 2026-05-07 09:03 | 59.40697 | 9.87589 | 16953 ft | 394 kts | 36° |
| 2026-05-07 09:03 | 59.42818 | 9.90975 | 16657 ft | 392 kts | 36° |
| 2026-05-07 09:03 | 59.44921 | 9.94337 | 16220 ft | 389 kts | 36° |
| 2026-05-07 09:03 | 59.47020 | 9.97697 | 15722 ft | 389 kts | 36° |
| 2026-05-07 09:04 | 59.49117 | 10.01058 | 15215 ft | 389 kts | 36° |
| 2026-05-07 09:04 | 59.51213 | 10.04427 | 14708 ft | 389 kts | 36° |
| 2026-05-07 09:04 | 59.53308 | 10.07801 | 14193 ft | 389 kts | 36° |
| 2026-05-07 09:04 | 59.55393 | 10.11163 | 13644 ft | 385 kts | 36° |
| 2026-05-07 09:05 | 59.57447 | 10.14486 | 13104 ft | 378 kts | 36° |
| 2026-05-07 09:05 | 59.59463 | 10.17746 | 12602 ft | 371 kts | 36° |
| 2026-05-07 09:05 | 59.61442 | 10.20971 | 12092 ft | 370 kts | 38° |
| 2026-05-07 09:05 | 59.63293 | 10.24453 | 11725 ft | 362 kts | 42° |
| 2026-05-07 09:06 | 59.65045 | 10.27908 | 11496 ft | 350 kts | 42° |
| 2026-05-07 09:06 | 59.66737 | 10.31247 | 11301 ft | 337 kts | 42° |
| 2026-05-07 09:06 | 59.68369 | 10.34463 | 11133 ft | 325 kts | 42° |
| 2026-05-07 09:06 | 59.69939 | 10.37560 | 10980 ft | 313 kts | 42° |
| 2026-05-07 09:07 | 59.71456 | 10.40558 | 10837 ft | 302 kts | 42° |
| 2026-05-07 09:07 | 59.72924 | 10.43458 | 10558 ft | 296 kts | 42° |
| 2026-05-07 09:07 | 59.74381 | 10.46345 | 10154 ft | 296 kts | 42° |
| 2026-05-07 09:07 | 59.75833 | 10.49220 | 9778 ft | 294 kts | 43° |
| 2026-05-07 09:08 | 59.77267 | 10.52064 | 9414 ft | 290 kts | 43° |
| 2026-05-07 09:08 | 59.78690 | 10.54891 | 9001 ft | 289 kts | 43° |
| 2026-05-07 09:08 | 59.80104 | 10.57704 | 8623 ft | 286 kts | 43° |
| 2026-05-07 09:08 | 59.81502 | 10.60489 | 8240 ft | 284 kts | 43° |
| 2026-05-07 09:09 | 59.82892 | 10.63264 | 7836 ft | 282 kts | 44° |
| 2026-05-07 09:09 | 59.84272 | 10.66022 | 7502 ft | 280 kts | 43° |
| 2026-05-07 09:09 | 59.85197 | 10.67871 | 7259 ft | 278 kts | 44° |
| 2026-05-07 09:09 | 59.86539 | 10.70557 | 6887 ft | 277 kts | 44° |
| 2026-05-07 09:10 | 59.87890 | 10.73265 | 6546 ft | 274 kts | 44° |
| 2026-05-07 09:10 | 59.89225 | 10.75948 | 6193 ft | 272 kts | 44° |
| 2026-05-07 09:10 | 59.90553 | 10.78617 | 5762 ft | 269 kts | 44° |
| 2026-05-07 09:10 | 59.91863 | 10.81247 | 5233 ft | 264 kts | 44° |
| 2026-05-07 09:11 | 59.93133 | 10.83770 | 4879 ft | 251 kts | 44° |
| 2026-05-07 09:11 | 59.94336 | 10.86163 | 4638 ft | 238 kts | 44° |
| 2026-05-07 09:11 | 59.95485 | 10.88462 | 4341 ft | 233 kts | 44° |
| 2026-05-07 09:11 | 59.96644 | 10.90790 | 4032 ft | 235 kts | 44° |
| 2026-05-07 09:12 | 59.97753 | 10.93110 | 3967 ft | 229 kts | 45° |
| 2026-05-07 09:12 | 59.98928 | 10.95186 | 3958 ft | 219 kts | 34° |
| 2026-05-07 09:12 | 60.00198 | 10.96655 | 3923 ft | 206 kts | 24° |
| 2026-05-07 09:12 | 60.01528 | 10.97696 | 3807 ft | 206 kts | 17° |
| 2026-05-07 09:13 | 60.02910 | 10.98437 | 3680 ft | 205 kts | 16° |
| 2026-05-07 09:13 | 60.04282 | 10.99218 | 3513 ft | 204 kts | 15° |
| 2026-05-07 09:13 | 60.05645 | 10.99996 | 3327 ft | 203 kts | 15° |
| 2026-05-07 09:13 | 60.06949 | 11.00743 | 3159 ft | 189 kts | 15° |
| 2026-05-07 09:14 | 60.08177 | 11.01446 | 2912 ft | 177 kts | 15° |
| 2026-05-07 09:14 | 60.09310 | 11.02096 | 2713 ft | 160 kts | 15° |
| 2026-05-07 09:14 | 60.10311 | 11.02670 | 2463 ft | 143 kts | 15° |
| 2026-05-07 09:14 | 60.11264 | 11.03217 | 2237 ft | 142 kts | 15° |
| 2026-05-07 09:15 | 60.12213 | 11.03762 | 2039 ft | 142 kts | 15° |
| 2026-05-07 09:15 | 60.13161 | 11.04307 | 1847 ft | 141 kts | 15° |
| 2026-05-07 09:15 | 60.14108 | 11.04851 | 1645 ft | 141 kts | 15° |
| 2026-05-07 09:15 | 60.15050 | 11.05393 | 1439 ft | 141 kts | 16° |
| 2026-05-07 09:16 | 60.15982 | 11.05929 | 1237 ft | 142 kts | 17° |
| 2026-05-07 09:16 | 60.16931 | 11.06479 | 1041 ft | 142 kts | 17° |
| 2026-05-07 09:16 | 60.17883 | 11.07030 | 853 ft | 143 kts | 16° |
| 2026-05-07 09:16 | 60.18842 | 11.07571 | 695 ft | 140 kts | 17° |
| 2026-05-07 09:17 | 60.19648 | 11.08034 | 684 ft | 91 kts | 16° |
| 2026-05-07 09:17 | 60.19975 | 11.08228 | 685 ft | 29 kts | 16° |
| 2026-05-07 09:17 | 60.20172 | 11.08371 | 683 ft | 31 kts | 36° |
| 2026-05-07 09:17 | 60.20228 | 11.08742 | 692 ft | 33 kts | 110° |
| 2026-05-07 09:18 | 60.20183 | 11.09046 | 683 ft | 20 kts | 107° |
| 2026-05-07 09:18 | 60.20144 | 11.09327 | 687 ft | 22 kts | 105° |
| 2026-05-07 09:18 | 60.20101 | 11.09634 | 691 ft | 24 kts | 106° |
| 2026-05-07 09:18 | 60.20053 | 11.09968 | 690 ft | 26 kts | 106° |
| 2026-05-07 09:19 | 60.20001 | 11.10326 | 691 ft | 27 kts | 106° |
| 2026-05-07 09:19 | 60.19940 | 11.10602 | 690 ft | 22 kts | 176° |
| 2026-05-07 09:19 | 60.19794 | 11.10520 | 690 ft | 23 kts | 192° |
| 2026-05-07 09:19 | 60.19638 | 11.10431 | 694 ft | 14 kts | 195° |
| 2026-05-07 09:20 | 60.19581 | 11.10400 | 695 ft | 9 kts | 192° |
| 2026-05-07 09:20 | 60.19528 | 11.10475 | 695 ft | 12 kts | 107° |
| 2026-05-07 09:20 | 60.19504 | 11.10581 | 689 ft | 5 kts | 145° |
| 2026-05-07 09:20 | 60.19464 | 11.10584 | 697 ft | 7 kts | 193° |
| 2026-05-07 09:21 | 60.19430 | 11.10566 | 691 ft | 5 kts | 195° |
| 2026-05-07 09:21 | 60.19411 | 11.10555 | 693 ft | 0 kts | 195° |